Route Details

Aircraft Information
Group: European Fleet
Types: A30F, A31F, B738
Route Data
Distance: 317nm
Duration: 1h 00m
Origin METAR: LOWL 160020Z AUTO 27009KT 9999 NCD 20/12 Q1011
Dest. METAR: EDDK 160020Z AUTO 14006KT CAVOK 18/14 Q1007 NOSIG
Freight Data
(for Aug 16, 2022)
Load Factor:
101%
Manifested Cargo: 56,002lbs
Financial History
Total Freight: 107,925lbs
Average Load: 0lbs/flt
Fuel Used: 20,717lbs
Avg. Fuel Used: 0lbs/flt
Fuel Expense: $10,566
Avg. Fuel Expense: $0
Avg. Fuel Cost: $0/lbs
Total Gross Income: $248,228
Pilot Pay: $508
Total Expenses: $52,823
Total Revenue: $183,844
Average Revenue: $0

Capitol Logistics 533




LOWL
Linz Hörsching Airport
Linz, AT
EDDK
Cologne Bonn Airport
Cologne, DE

Activity Log

Date Flight Route Aircraft Duration
07/19/2022 CPX533 LIDSI1E LIDSI LAMSI L604 DEMAB T842 EBANA T841 ERNEP KOPAG KOPAG14 B738 1h 15m
07/19/2022 CPX533 LIDS1E LIDSI DCT LAMSI L604 DEMAB T842 EBANA T841 ERNEP DCT KOPAG KOPA14 A30F 1h 18m